createdAt,value
2023-03-22T00:01:32.517Z,83.95
2023-03-22T00:03:25.597Z,84.11
2023-03-22T00:05:18.618Z,84.21
2023-03-22T00:07:11.669Z,84.16
2023-03-22T00:09:04.827Z,84.30
2023-03-22T00:10:57.777Z,84.39
2023-03-22T00:12:51.128Z,84.54
2023-03-22T00:14:44.282Z,84.39
2023-03-22T00:16:37.358Z,84.43
2023-03-22T00:18:30.481Z,84.51
2023-03-22T00:20:23.840Z,84.51
2023-03-22T00:22:16.890Z,84.37
2023-03-22T00:24:09.945Z,84.36
2023-03-22T00:26:02.996Z,84.39
2023-03-22T00:27:55.986Z,84.41
2023-03-22T00:29:48.991Z,84.32
2023-03-22T00:31:42.396Z,84.32
2023-03-22T00:33:36.646Z,84.35
2023-03-22T00:35:29.686Z,84.06
2023-03-22T00:37:22.730Z,84.07
2023-03-22T00:39:15.816Z,84.10
2023-03-22T00:41:12.581Z,84.04
2023-03-22T00:43:05.574Z,84.06
2023-03-22T00:44:58.517Z,84.03
2023-03-22T00:46:51.493Z,84.14
2023-03-22T00:48:45.338Z,84.08
2023-03-22T00:50:40.292Z,83.98
2023-03-22T00:52:33.691Z,83.94
2023-03-22T00:54:27.255Z,83.93
2023-03-22T00:56:23.123Z,84.03
2023-03-22T00:58:26.920Z,83.82
2023-03-22T01:00:20.545Z,83.92
2023-03-22T01:02:14.203Z,83.85
2023-03-22T01:04:07.253Z,83.73
2023-03-22T01:06:01.132Z,83.84
2023-03-22T01:07:55.132Z,83.74
2023-03-22T01:09:48.863Z,83.73
2023-03-22T01:11:43.243Z,83.67
2023-03-22T01:13:41.969Z,83.68
2023-03-22T01:15:35.693Z,83.72
2023-03-22T01:17:29.044Z,83.67
2023-03-22T01:19:21.993Z,83.53
2023-03-22T01:21:15.150Z,83.45
2023-03-22T01:23:08.312Z,83.42
2023-03-22T01:25:01.554Z,83.41
2023-03-22T01:26:54.735Z,83.41
2023-03-22T01:28:47.654Z,83.36
2023-03-22T01:30:41.176Z,83.29
2023-03-22T01:32:37.024Z,83.18
2023-03-22T01:34:31.415Z,83.33
2023-03-22T01:36:24.668Z,83.24
2023-03-22T01:38:17.927Z,83.42
2023-03-22T01:40:17.632Z,83.35
2023-03-22T01:42:14.623Z,83.37
2023-03-22T01:44:16.774Z,83.35
2023-03-22T01:46:18.330Z,83.50
2023-03-22T01:48:17.943Z,83.51
2023-03-22T01:50:11.662Z,83.48
2023-03-22T01:52:11.165Z,83.53
2023-03-22T01:54:34.827Z,83.44
2023-03-22T01:56:35.042Z,83.59
2023-03-22T01:58:28.354Z,83.51
2023-03-22T02:00:24.641Z,83.70
2023-03-22T02:02:31.167Z,83.58
2023-03-22T02:04:35.887Z,83.67
2023-03-22T02:06:32.477Z,83.91
2023-03-22T02:08:33.197Z,83.87
2023-03-22T02:10:28.699Z,83.99
2023-03-22T02:12:37.427Z,83.92
2023-03-22T02:14:47.668Z,83.92
2023-03-22T02:17:02.530Z,83.94
2023-03-22T02:19:30.716Z,84.26
2023-03-22T02:21:42.700Z,84.27
2023-03-22T02:24:05.804Z,84.25
2023-03-22T02:26:11.405Z,84.28
2023-03-22T02:28:17.616Z,84.42
2023-03-22T02:30:19.723Z,84.31
2023-03-22T02:32:41.352Z,84.49
2023-03-22T02:34:54.058Z,84.62
2023-03-22T02:37:27.231Z,84.65
2023-03-22T02:39:30.546Z,84.69
2023-03-22T02:42:14.480Z,84.83
2023-03-22T02:44:28.111Z,85.28
2023-03-22T02:46:38.099Z,85.25
2023-03-22T02:49:01.872Z,85.40
2023-03-22T02:51:00.305Z,85.58
2023-03-22T02:53:05.746Z,85.62
2023-03-22T02:55:26.344Z,85.87
2023-03-22T02:57:31.170Z,86.03
2023-03-22T02:59:26.879Z,86.23
2023-03-22T03:01:36.196Z,86.45
2023-03-22T03:03:32.137Z,86.29
2023-03-22T03:05:27.119Z,86.77
2023-03-22T03:07:24.736Z,86.74
2023-03-22T03:09:19.997Z,86.82
2023-03-22T03:11:13.044Z,86.80
2023-03-22T03:13:06.291Z,87.15
2023-03-22T03:14:59.343Z,87.12
2023-03-22T03:17:22.927Z,87.17
2023-03-22T03:19:27.427Z,87.51
2023-03-22T03:21:30.347Z,87.50
2023-03-22T03:23:43.744Z,87.45
2023-03-22T03:26:03.112Z,88.02
2023-03-22T03:28:10.159Z,87.86
2023-03-22T03:30:13.976Z,87.91
2023-03-22T03:32:19.229Z,88.21
2023-03-22T03:34:18.026Z,88.18
2023-03-22T03:36:16.085Z,88.31
2023-03-22T03:38:27.398Z,88.59
2023-03-22T03:40:25.568Z,88.44
2023-03-22T03:42:19.409Z,88.43
2023-03-22T03:44:13.882Z,88.60
2023-03-22T03:46:08.736Z,88.72
2023-03-22T03:48:06.641Z,89.11
2023-03-22T03:49:59.999Z,89.13
2023-03-22T03:51:55.823Z,89.24
2023-03-22T03:53:49.072Z,89.14
2023-03-22T03:55:42.943Z,89.15
2023-03-22T03:57:36.092Z,89.11
2023-03-22T03:59:29.244Z,89.31
2023-03-22T04:01:24.257Z,89.46
2023-03-22T04:03:38.900Z,89.59
2023-03-22T04:05:38.199Z,89.35
2023-03-22T04:07:31.963Z,89.41
2023-03-22T04:09:27.485Z,89.53
2023-03-22T04:11:22.876Z,89.79
2023-03-22T04:13:19.292Z,89.89
2023-03-22T04:15:13.179Z,89.75
2023-03-22T04:17:06.637Z,90.00
2023-03-22T04:18:59.687Z,89.92
2023-03-22T04:20:53.700Z,90.31
2023-03-22T04:22:49.054Z,90.48
2023-03-22T04:24:42.230Z,90.53
2023-03-22T04:26:35.988Z,90.28
2023-03-22T04:28:49.324Z,90.32
2023-03-22T04:30:45.864Z,90.47
2023-03-22T04:32:49.030Z,90.55
2023-03-22T04:34:43.103Z,90.22
2023-03-22T04:36:41.696Z,90.87
2023-03-22T04:38:41.908Z,90.68
2023-03-22T04:40:38.966Z,90.58
2023-03-22T04:42:36.810Z,90.77
2023-03-22T04:44:35.527Z,90.92
2023-03-22T04:46:30.742Z,90.93
2023-03-22T04:48:29.680Z,90.89
2023-03-22T04:50:23.757Z,91.16
2023-03-22T04:52:19.369Z,90.97
2023-03-22T04:54:17.845Z,91.16
2023-03-22T04:56:13.865Z,91.14
2023-03-22T04:58:07.529Z,91.10
2023-03-22T05:00:06.725Z,91.23
2023-03-22T05:01:59.967Z,91.24
2023-03-22T05:03:54.258Z,91.26
2023-03-22T05:05:53.572Z,91.36
2023-03-22T05:07:47.125Z,91.36
2023-03-22T05:09:40.173Z,91.32
2023-03-22T05:11:34.041Z,91.25
2023-03-22T05:13:50.338Z,91.45
2023-03-22T05:15:43.392Z,91.24
2023-03-22T05:17:36.948Z,91.21
2023-03-22T05:19:30.714Z,91.42
2023-03-22T05:21:28.297Z,91.41
2023-03-22T05:23:22.513Z,91.61
2023-03-22T05:25:18.185Z,91.66
2023-03-22T05:27:14.420Z,91.61
2023-03-22T05:29:11.842Z,91.75
2023-03-22T05:31:21.988Z,91.79
2023-03-22T05:33:22.052Z,91.64
2023-03-22T05:35:17.967Z,91.63
2023-03-22T05:37:16.933Z,91.69
2023-03-22T05:39:22.769Z,91.69
2023-03-22T05:41:16.533Z,91.71
2023-03-22T05:43:09.788Z,91.67
2023-03-22T05:45:03.661Z,91.82
2023-03-22T05:46:56.755Z,91.76
2023-03-22T05:49:05.941Z,91.55
2023-03-22T05:50:59.610Z,91.68
2023-03-22T05:52:54.601Z,91.75
2023-03-22T05:54:59.431Z,91.87
2023-03-22T05:56:55.281Z,91.78
2023-03-22T05:58:48.808Z,91.93
2023-03-22T06:00:43.294Z,92.07
2023-03-22T06:02:56.661Z,92.02
2023-03-22T06:04:52.230Z,92.07
2023-03-22T06:06:47.126Z,92.05
2023-03-22T06:08:53.280Z,92.43
2023-03-22T06:10:51.135Z,92.26
2023-03-22T06:12:44.206Z,92.37
2023-03-22T06:14:41.650Z,92.40
2023-03-22T06:17:10.948Z,92.44
2023-03-22T06:19:05.049Z,92.37
2023-03-22T06:21:00.101Z,92.32
2023-03-22T06:22:53.904Z,92.28
2023-03-22T06:24:47.470Z,92.08
2023-03-22T06:26:44.195Z,91.97
2023-03-22T06:28:38.264Z,92.03
2023-03-22T06:30:31.555Z,91.93
2023-03-22T06:32:45.770Z,91.80
2023-03-22T06:34:41.069Z,91.97
2023-03-22T06:36:34.832Z,92.18
2023-03-22T06:38:43.981Z,91.92
2023-03-22T06:40:37.138Z,91.84
2023-03-22T06:42:31.078Z,91.85
2023-03-22T06:44:34.679Z,91.57
2023-03-22T06:46:38.377Z,91.90
2023-03-22T06:48:38.701Z,91.68
2023-03-22T06:50:38.374Z,91.51
2023-03-22T06:52:53.379Z,91.17
2023-03-22T06:54:46.599Z,91.17
2023-03-22T06:56:40.494Z,90.72
2023-03-22T06:58:33.646Z,90.70
2023-03-22T07:00:26.596Z,90.70
2023-03-22T07:02:19.648Z,90.73
2023-03-22T07:04:33.355Z,90.65
2023-03-22T07:06:26.657Z,90.48
2023-03-22T07:08:20.436Z,90.78
2023-03-22T07:10:15.720Z,90.58
2023-03-22T07:12:09.994Z,90.56
2023-03-22T07:14:03.989Z,90.48
2023-03-22T07:16:13.094Z,90.62
2023-03-22T07:18:12.346Z,90.43
2023-03-22T07:20:07.025Z,90.42
2023-03-22T07:22:00.267Z,90.35
2023-03-22T07:23:53.416Z,90.21
2023-03-22T07:25:48.222Z,90.03
2023-03-22T07:27:48.708Z,90.07
2023-03-22T07:29:41.849Z,90.17
2023-03-22T07:31:36.649Z,90.14
2023-03-22T07:33:33.330Z,90.12
2023-03-22T07:35:30.504Z,89.95
2023-03-22T07:37:24.831Z,89.68
2023-03-22T07:39:21.240Z,89.69
2023-03-22T07:41:14.497Z,89.49
2023-03-22T07:43:21.680Z,89.48
2023-03-22T07:45:35.830Z,89.69
2023-03-22T07:47:58.263Z,88.81
2023-03-22T07:50:14.360Z,88.76
2023-03-22T07:52:09.341Z,88.03
2023-03-22T07:54:03.192Z,87.04
2023-03-22T07:55:56.271Z,87.25
2023-03-22T07:57:49.323Z,87.56
2023-03-22T07:59:44.332Z,87.27
2023-03-22T08:01:38.654Z,86.69
2023-03-22T08:03:48.446Z,86.50
2023-03-22T08:05:54.804Z,86.74
2023-03-22T08:07:49.082Z,86.70
2023-03-22T08:09:42.942Z,86.36
2023-03-22T08:11:36.821Z,86.38
2023-03-22T08:13:30.690Z,86.56
2023-03-22T08:15:24.053Z,85.34
2023-03-22T08:17:19.103Z,84.79
2023-03-22T08:19:14.761Z,84.71
2023-03-22T08:21:08.578Z,84.20
2023-03-22T08:23:01.966Z,83.51
2023-03-22T08:25:18.300Z,82.97
2023-03-22T08:27:12.357Z,82.73
2023-03-22T08:29:10.076Z,82.20
2023-03-22T08:31:13.902Z,82.09
2023-03-22T08:33:08.610Z,82.04
2023-03-22T08:35:01.679Z,81.90
2023-03-22T08:36:54.715Z,81.45
2023-03-22T08:38:49.611Z,81.18
2023-03-22T08:40:47.061Z,81.41
2023-03-22T08:42:40.707Z,81.24
2023-03-22T08:44:33.687Z,81.27
2023-03-22T08:46:27.638Z,81.26
2023-03-22T08:48:20.948Z,80.95
2023-03-22T08:50:35.001Z,81.33
2023-03-22T08:52:39.859Z,81.81
2023-03-22T08:54:44.583Z,81.66
2023-03-22T08:56:59.268Z,81.24
2023-03-22T08:59:21.998Z,79.92
2023-03-22T09:01:27.988Z,78.59
2023-03-22T09:03:28.288Z,78.83
2023-03-22T09:05:21.522Z,79.08
2023-03-22T09:07:14.679Z,78.96
2023-03-22T09:09:08.863Z,76.69
2023-03-22T09:11:03.031Z,76.41
2023-03-22T09:12:56.288Z,75.26
2023-03-22T09:14:50.156Z,76.42
2023-03-22T09:16:43.824Z,75.96
2023-03-22T09:18:38.389Z,76.06
2023-03-22T09:20:36.150Z,75.69
2023-03-22T09:22:30.140Z,75.55
2023-03-22T09:24:23.309Z,73.32
2023-03-22T09:26:19.013Z,73.37
2023-03-22T09:28:14.554Z,73.93
2023-03-22T09:30:08.688Z,74.86
2023-03-22T09:32:01.738Z,75.10
2023-03-22T09:33:57.658Z,74.71
2023-03-22T09:35:50.823Z,74.95
2023-03-22T09:37:45.702Z,74.71
2023-03-22T09:39:40.294Z,74.86
2023-03-22T09:41:46.412Z,74.87
2023-03-22T09:43:48.603Z,74.16
2023-03-22T09:45:46.604Z,73.81
2023-03-22T09:47:45.424Z,72.49
2023-03-22T09:49:52.968Z,72.98
2023-03-22T09:51:51.819Z,73.39
2023-03-22T09:53:44.898Z,73.31
2023-03-22T09:55:46.136Z,72.87
2023-03-22T09:57:39.900Z,72.76
2023-03-22T10:00:12.700Z,72.81
2023-03-22T10:02:26.766Z,72.69
2023-03-22T10:04:55.489Z,71.93
2023-03-22T10:07:00.034Z,70.79
2023-03-22T10:09:02.303Z,71.62
2023-03-22T10:10:55.374Z,70.72
2023-03-22T10:13:05.503Z,70.74
2023-03-22T10:15:16.154Z,70.47
2023-03-22T10:17:17.720Z,70.76
2023-03-22T10:19:22.040Z,69.87
2023-03-22T10:21:19.282Z,69.54
2023-03-22T10:23:22.185Z,69.24
2023-03-22T10:25:21.670Z,68.91
2023-03-22T10:27:16.453Z,67.95
2023-03-22T10:29:30.494Z,67.81
2023-03-22T10:31:26.782Z,66.83
2023-03-22T10:33:34.620Z,66.31
2023-03-22T10:35:28.578Z,67.19
2023-03-22T10:37:26.769Z,67.36
2023-03-22T10:39:27.495Z,66.85
2023-03-22T10:41:24.448Z,67.09
2023-03-22T10:43:36.838Z,65.74
2023-03-22T10:45:34.082Z,65.62
2023-03-22T10:47:35.815Z,65.55
2023-03-22T10:49:35.666Z,65.01
2023-03-22T10:51:47.964Z,64.69
2023-03-22T10:53:46.830Z,65.45
2023-03-22T10:55:44.604Z,65.76
2023-03-22T10:57:39.401Z,65.92
2023-03-22T10:59:49.765Z,66.03
2023-03-22T11:01:45.202Z,65.60
2023-03-22T11:03:45.110Z,65.64
2023-03-22T11:05:38.815Z,65.23
2023-03-22T11:07:45.408Z,65.47
2023-03-22T11:09:38.456Z,65.48
2023-03-22T11:11:36.663Z,64.85
2023-03-22T11:13:29.574Z,65.30
2023-03-22T11:15:27.547Z,65.17
2023-03-22T11:17:26.008Z,64.69
2023-03-22T11:19:26.664Z,65.49
2023-03-22T11:21:23.484Z,65.82
2023-03-22T11:23:18.291Z,65.98
2023-03-22T11:25:37.338Z,65.53
2023-03-22T11:27:33.490Z,65.51
2023-03-22T11:29:27.987Z,65.52
2023-03-22T11:31:21.426Z,65.87
2023-03-22T11:33:21.326Z,66.10
2023-03-22T11:35:17.849Z,65.60
2023-03-22T11:37:11.306Z,65.35
2023-03-22T11:39:08.038Z,64.41
2023-03-22T11:41:03.779Z,64.32
2023-03-22T11:43:18.956Z,64.14
2023-03-22T11:45:21.520Z,63.97
2023-03-22T11:47:14.515Z,64.08
2023-03-22T11:49:14.877Z,63.94
2023-03-22T11:51:15.922Z,63.07
2023-03-22T11:53:19.680Z,62.55
2023-03-22T11:55:14.459Z,62.45
2023-03-22T11:57:17.204Z,63.10
2023-03-22T11:59:28.050Z,62.98
2023-03-22T12:02:06.734Z,62.09
2023-03-22T12:04:07.875Z,61.32
2023-03-22T12:06:07.149Z,62.02
2023-03-22T12:08:10.517Z,61.23
2023-03-22T12:10:41.297Z,62.01
2023-03-22T12:12:44.203Z,62.51
2023-03-22T12:14:47.548Z,61.02
2023-03-22T12:16:54.996Z,61.18
2023-03-22T12:18:57.628Z,61.20
2023-03-22T12:20:56.502Z,61.55
2023-03-22T12:22:54.768Z,61.80
2023-03-22T12:24:48.493Z,61.18
2023-03-22T12:26:41.750Z,61.59
2023-03-22T12:28:42.940Z,61.76
2023-03-22T12:30:51.330Z,62.50
2023-03-22T12:32:50.133Z,61.86
2023-03-22T12:34:48.792Z,61.60
2023-03-22T12:36:48.274Z,61.45
2023-03-22T12:39:18.049Z,61.56
2023-03-22T12:41:15.946Z,61.63
2023-03-22T12:43:37.993Z,62.07
2023-03-22T12:45:36.156Z,61.75
2023-03-22T12:47:35.972Z,61.17
2023-03-22T12:49:37.508Z,61.53
2023-03-22T12:51:30.870Z,61.63
2023-03-22T12:53:30.678Z,61.51
2023-03-22T12:55:29.871Z,61.67
2023-03-22T12:57:22.919Z,61.53
2023-03-22T12:59:20.309Z,61.35
2023-03-22T13:01:46.599Z,61.75
2023-03-22T13:03:47.947Z,61.47
2023-03-22T13:05:41.725Z,61.70
2023-03-22T13:07:52.389Z,60.79
2023-03-22T13:09:50.752Z,61.41
2023-03-22T13:12:03.156Z,61.44
2023-03-22T13:13:56.211Z,61.82
2023-03-22T13:16:15.399Z,61.66
2023-03-22T13:18:31.910Z,61.91
2023-03-22T13:20:28.228Z,61.33
2023-03-22T13:22:50.041Z,61.21
2023-03-22T13:25:08.641Z,61.30
2023-03-22T13:27:02.164Z,61.44
2023-03-22T13:28:59.100Z,61.85
2023-03-22T13:30:57.142Z,61.94
2023-03-22T13:32:57.130Z,62.07
2023-03-22T13:34:53.035Z,61.53
2023-03-22T13:36:51.815Z,61.03
2023-03-22T13:38:54.895Z,61.10
2023-03-22T13:41:03.594Z,61.30
2023-03-22T13:43:11.266Z,61.10
2023-03-22T13:45:09.496Z,59.95
2023-03-22T13:47:03.093Z,60.52
2023-03-22T13:49:02.091Z,60.80
2023-03-22T13:50:56.974Z,60.76
2023-03-22T13:53:02.002Z,60.57
2023-03-22T13:54:57.734Z,60.91
2023-03-22T13:56:57.383Z,61.12
2023-03-22T13:58:53.159Z,60.93
2023-03-22T14:00:53.084Z,61.41
2023-03-22T14:02:48.574Z,60.59
2023-03-22T14:04:47.321Z,60.69
2023-03-22T14:06:51.453Z,60.22
2023-03-22T14:08:47.966Z,60.08
2023-03-22T14:10:48.985Z,59.42
2023-03-22T14:12:48.024Z,59.85
2023-03-22T14:14:56.380Z,60.14
2023-03-22T14:16:59.697Z,60.70
2023-03-22T14:18:54.104Z,60.78
2023-03-22T14:20:52.519Z,60.79
